Captain Fuentes Martinez Airport

SCFM · Region of Magallanes, 智利

使用的METAR站距离机场45 km。
罗盘
风向 的 风向 280° Capitan Fuentes Martinez Airport Airport 9/27
风: 5 kt, 2 beaufort

5 kt

1 kt
改变
0 ft 1.000 2.000 3.000 4.000 5.000
Cloud Cloud
FEW 3.000
Cloud Cloud Cloud Cloud
SCT 5.000
METAR SCCI 020500Z 28005KT 9999 FEW030 SCT050 05/03 Q0997 NOSIG

METAR Capitan Fuentes Martinez Airport Airport - SCFM/WPR

Capitan Fuentes Martinez Airport Airport是,智利中的中型机场。 该机场位于纬度-53,25093和经度-70,32355。 该机场有2条跑道: 9/27 和 3/21. 本场的ICAO机场代码为SCFM。 该机场的IATA代码为WPR。 机场在Punta Arenas FIR中。

该航空气象观测是针对Pdte. Carlos Ibañez del Campo Airport在2024年3月2日 02:00, 当地时间进行的。

机场观察

风向为280°,速度为5 kt。

可见度为10 km 或者更多。

有几云在3.000 ft的高度 和 疏云,零星散落的云朵在5.000 ft的高度。 没有观察到天花板。

温度为5 °C,阵风为1 °C。 露点为3 °C,相对湿度为87%。 海平面上的气压为997 hPa (QNH)。

白天

今天,太阳从07:10升起,在20:35降落。 这适用于Capitan Fuentes Martinez Airport Airport,世界夏令时可能有所不同。 当地时间与世界标准时间之间的时差为-3 小时。 当前,没有夏令时有效。

公司介绍

我们没有关于这个机场的公司信息。

体会

到Vliegles.nl去找飞行课程,跳伞和其他飞行体验。 浏览页面,了解Capitan Fuentes Martinez Airport Airport附近所有可用的活动。 你也可以使用搜索功能来寻找你所在地附近的特定飞行课程、跳伞或其他飞行体验。

跑道

Id 标题 侧风 逆风 侧风 %
9/27 110°-290° 5 kt 17 %
3/21 046°-226° 4 kt 3 kt 81 %

逆风成分最大的方向会被突出显示,并用于横风计算。 这并不一定意味着这个方向在使用。

乌云

3.000 ft FEW 几云
5.000 ft SCT 疏云,零星散落的云朵

温度 & 天气

温度 5 °C
露点 3 °C
相对湿度 87%
风寒 1 °C
Kp-index 1 (0-9)

白天

日出
07:13 (4:25)
中午
13:55
日落
20:37

小工具

你想在你的网站上有一个关于Capitan Fuentes Martinez Airport Airport的当前航空天气(METAR)的小部件吗?

显示HTML代码
?>